sensor_id;sensor_type;location;lat;lon;timestamp;P1;durP1;ratioP1;P2;durP2;ratioP2
1651;SDS011;823;49.028;8.454;2023-01-30T00:03:22;23.50;;;10.30;;
1651;SDS011;823;49.028;8.454;2023-01-30T00:08:23;24.20;;;10.60;;
1651;SDS011;823;49.028;8.454;2023-01-30T00:13:24;27.13;;;8.68;;
1651;SDS011;823;49.028;8.454;2023-01-30T00:18:24;25.73;;;9.77;;
1651;SDS011;823;49.028;8.454;2023-01-30T00:23:25;21.60;;;9.77;;
1651;SDS011;823;49.028;8.454;2023-01-30T00:28:26;23.33;;;9.70;;
1651;SDS011;823;49.028;8.454;2023-01-30T00:33:27;27.47;;;10.70;;
1651;SDS011;823;49.028;8.454;2023-01-30T00:38:27;21.90;;;8.77;;
1651;SDS011;823;49.028;8.454;2023-01-30T00:43:28;29.27;;;10.80;;
1651;SDS011;823;49.028;8.454;2023-01-30T00:48:47;26.07;;;9.70;;
1651;SDS011;823;49.028;8.454;2023-01-30T00:53:47;26.03;;;9.73;;
1651;SDS011;823;49.028;8.454;2023-01-30T00:58:47;26.93;;;10.83;;
1651;SDS011;823;49.028;8.454;2023-01-30T01:03:48;27.93;;;11.47;;
1651;SDS011;823;49.028;8.454;2023-01-30T01:08:48;30.40;;;12.60;;
1651;SDS011;823;49.028;8.454;2023-01-30T01:13:52;28.67;;;9.90;;
1651;SDS011;823;49.028;8.454;2023-01-30T01:18:53;28.80;;;9.80;;
1651;SDS011;823;49.028;8.454;2023-01-30T01:23:55;37.10;;;11.30;;
1651;SDS011;823;49.028;8.454;2023-01-30T01:28:57;28.23;;;11.87;;
1651;SDS011;823;49.028;8.454;2023-01-30T01:33:58;27.60;;;10.67;;
1651;SDS011;823;49.028;8.454;2023-01-30T01:38:58;28.98;;;11.13;;
1651;SDS011;823;49.028;8.454;2023-01-30T01:44:00;26.25;;;9.82;;
1651;SDS011;823;49.028;8.454;2023-01-30T01:49:04;29.97;;;10.17;;
1651;SDS011;823;49.028;8.454;2023-01-30T01:54:12;30.20;;;11.30;;
1651;SDS011;823;49.028;8.454;2023-01-30T01:59:21;28.07;;;10.17;;
1651;SDS011;823;49.028;8.454;2023-01-30T02:04:46;27.60;;;9.50;;
1651;SDS011;823;49.028;8.454;2023-01-30T02:10:01;28.20;;;9.63;;
1651;SDS011;823;49.028;8.454;2023-01-30T02:15:01;22.30;;;9.10;;
1651;SDS011;823;49.028;8.454;2023-01-30T02:20:19;43.37;;;9.23;;
1651;SDS011;823;49.028;8.454;2023-01-30T02:36:26;25.67;;;10.07;;
1651;SDS011;823;49.028;8.454;2023-01-30T02:41:41;19.97;;;9.00;;
1651;SDS011;823;49.028;8.454;2023-01-30T02:46:53;30.10;;;10.37;;
1651;SDS011;823;49.028;8.454;2023-01-30T02:52:05;24.90;;;9.70;;
1651;SDS011;823;49.028;8.454;2023-01-30T02:57:18;26.03;;;9.17;;
1651;SDS011;823;49.028;8.454;2023-01-30T03:02:30;25.60;;;8.90;;
1651;SDS011;823;49.028;8.454;2023-01-30T03:13:54;20.17;;;8.70;;
1651;SDS011;823;49.028;8.454;2023-01-30T03:19:01;22.30;;;8.77;;
1651;SDS011;823;49.028;8.454;2023-01-30T03:24:05;22.27;;;8.90;;
1651;SDS011;823;49.028;8.454;2023-01-30T03:29:06;23.27;;;8.63;;
1651;SDS011;823;49.028;8.454;2023-01-30T03:34:06;20.20;;;7.68;;
1651;SDS011;823;49.028;8.454;2023-01-30T03:39:06;25.67;;;9.53;;
1651;SDS011;823;49.028;8.454;2023-01-30T03:44:07;23.37;;;9.30;;
1651;SDS011;823;49.028;8.454;2023-01-30T03:49:07;22.07;;;8.13;;
1651;SDS011;823;49.028;8.454;2023-01-30T03:54:08;24.63;;;10.27;;
1651;SDS011;823;49.028;8.454;2023-01-30T03:59:08;27.00;;;8.73;;
1651;SDS011;823;49.028;8.454;2023-01-30T04:04:08;21.47;;;9.97;;
1651;SDS011;823;49.028;8.454;2023-01-30T04:09:09;23.10;;;10.33;;
1651;SDS011;823;49.028;8.454;2023-01-30T04:14:09;29.20;;;8.90;;
1651;SDS011;823;49.028;8.454;2023-01-30T04:19:09;22.80;;;8.95;;
1651;SDS011;823;49.028;8.454;2023-01-30T04:24:09;19.55;;;8.55;;
1651;SDS011;823;49.028;8.454;2023-01-30T04:29:10;19.50;;;8.05;;
1651;SDS011;823;49.028;8.454;2023-01-30T04:34:10;21.10;;;8.00;;
1651;SDS011;823;49.028;8.454;2023-01-30T04:39:10;18.05;;;8.05;;
1651;SDS011;823;49.028;8.454;2023-01-30T04:44:11;25.05;;;8.35;;
1651;SDS011;823;49.028;8.454;2023-01-30T04:49:11;22.33;;;8.13;;
1651;SDS011;823;49.028;8.454;2023-01-30T04:54:12;15.30;;;7.57;;
1651;SDS011;823;49.028;8.454;2023-01-30T04:59:12;21.77;;;9.20;;
1651;SDS011;823;49.028;8.454;2023-01-30T05:04:12;18.33;;;7.00;;
1651;SDS011;823;49.028;8.454;2023-01-30T05:09:13;17.60;;;7.50;;
1651;SDS011;823;49.028;8.454;2023-01-30T05:14:13;19.42;;;8.15;;
1651;SDS011;823;49.028;8.454;2023-01-30T05:19:13;16.53;;;7.30;;
1651;SDS011;823;49.028;8.454;2023-01-30T05:24:14;15.18;;;5.82;;
1651;SDS011;823;49.028;8.454;2023-01-30T05:29:14;22.93;;;5.77;;
1651;SDS011;823;49.028;8.454;2023-01-30T05:34:14;28.00;;;7.65;;
1651;SDS011;823;49.028;8.454;2023-01-30T05:39:15;15.85;;;7.60;;
1651;SDS011;823;49.028;8.454;2023-01-30T05:44:15;16.67;;;7.20;;
1651;SDS011;823;49.028;8.454;2023-01-30T05:49:15;17.43;;;8.80;;
1651;SDS011;823;49.028;8.454;2023-01-30T05:54:16;18.33;;;6.07;;
1651;SDS011;823;49.028;8.454;2023-01-30T05:59:16;21.03;;;6.60;;
1651;SDS011;823;49.028;8.454;2023-01-30T06:04:17;21.27;;;7.33;;
1651;SDS011;823;49.028;8.454;2023-01-30T06:09:17;12.60;;;6.25;;
1651;SDS011;823;49.028;8.454;2023-01-30T06:14:18;12.95;;;6.38;;
1651;SDS011;823;49.028;8.454;2023-01-30T06:19:18;19.17;;;7.23;;
1651;SDS011;823;49.028;8.454;2023-01-30T06:24:18;13.93;;;7.03;;
1651;SDS011;823;49.028;8.454;2023-01-30T06:29:19;20.13;;;8.07;;
1651;SDS011;823;49.028;8.454;2023-01-30T06:34:19;17.73;;;6.80;;
1651;SDS011;823;49.028;8.454;2023-01-30T06:39:20;20.90;;;6.38;;
1651;SDS011;823;49.028;8.454;2023-01-30T06:44:20;22.13;;;7.80;;
1651;SDS011;823;49.028;8.454;2023-01-30T06:49:20;21.35;;;7.30;;
1651;SDS011;823;49.028;8.454;2023-01-30T06:54:21;14.37;;;6.37;;
1651;SDS011;823;49.028;8.454;2023-01-30T06:59:21;15.50;;;6.40;;
1651;SDS011;823;49.028;8.454;2023-01-30T07:04:21;23.00;;;7.00;;
1651;SDS011;823;49.028;8.454;2023-01-30T07:09:21;11.15;;;5.78;;
1651;SDS011;823;49.028;8.454;2023-01-30T07:14:22;13.77;;;6.20;;
1651;SDS011;823;49.028;8.454;2023-01-30T07:19:22;15.95;;;6.70;;
1651;SDS011;823;49.028;8.454;2023-01-30T07:24:22;14.93;;;6.28;;
1651;SDS011;823;49.028;8.454;2023-01-30T07:29:23;12.00;;;4.40;;
1651;SDS011;823;49.028;8.454;2023-01-30T07:34:23;14.65;;;6.57;;
1651;SDS011;823;49.028;8.454;2023-01-30T07:39:23;11.52;;;5.57;;
1651;SDS011;823;49.028;8.454;2023-01-30T07:44:23;13.87;;;5.80;;
1651;SDS011;823;49.028;8.454;2023-01-30T07:49:24;12.00;;;6.20;;
1651;SDS011;823;49.028;8.454;2023-01-30T07:54:24;19.77;;;6.73;;
1651;SDS011;823;49.028;8.454;2023-01-30T07:59:25;20.00;;;7.40;;
1651;SDS011;823;49.028;8.454;2023-01-30T08:04:26;12.47;;;6.07;;
1651;SDS011;823;49.028;8.454;2023-01-30T08:09:26;17.70;;;6.57;;
1651;SDS011;823;49.028;8.454;2023-01-30T08:14:27;13.17;;;5.60;;
1651;SDS011;823;49.028;8.454;2023-01-30T08:19:28;14.63;;;6.40;;
1651;SDS011;823;49.028;8.454;2023-01-30T08:24:28;18.83;;;7.40;;
1651;SDS011;823;49.028;8.454;2023-01-30T08:29:29;16.33;;;6.28;;
1651;SDS011;823;49.028;8.454;2023-01-30T08:34:29;17.07;;;7.23;;
1651;SDS011;823;49.028;8.454;2023-01-30T08:39:30;14.60;;;5.83;;
1651;SDS011;823;49.028;8.454;2023-01-30T08:44:30;14.87;;;6.17;;
1651;SDS011;823;49.028;8.454;2023-01-30T08:49:30;13.32;;;6.03;;
1651;SDS011;823;49.028;8.454;2023-01-30T08:54:31;12.87;;;5.77;;
1651;SDS011;823;49.028;8.454;2023-01-30T08:59:31;12.60;;;5.90;;
1651;SDS011;823;49.028;8.454;2023-01-30T09:04:31;12.83;;;5.83;;
1651;SDS011;823;49.028;8.454;2023-01-30T09:09:32;15.70;;;5.67;;
1651;SDS011;823;49.028;8.454;2023-01-30T09:14:32;16.20;;;6.97;;
1651;SDS011;823;49.028;8.454;2023-01-30T09:19:32;18.50;;;6.33;;
1651;SDS011;823;49.028;8.454;2023-01-30T09:24:36;17.43;;;5.60;;
1651;SDS011;823;49.028;8.454;2023-01-30T09:29:36;17.65;;;5.65;;
1651;SDS011;823;49.028;8.454;2023-01-30T09:34:36;19.88;;;6.00;;
1651;SDS011;823;49.028;8.454;2023-01-30T09:39:36;15.37;;;7.13;;
1651;SDS011;823;49.028;8.454;2023-01-30T09:55:37;23.77;;;7.33;;
1651;SDS011;823;49.028;8.454;2023-01-30T10:00:40;23.80;;;8.17;;
1651;SDS011;823;49.028;8.454;2023-01-30T10:05:54;15.63;;;6.70;;
1651;SDS011;823;49.028;8.454;2023-01-30T10:16:35;20.80;;;7.10;;
1651;SDS011;823;49.028;8.454;2023-01-30T10:27:11;18.87;;;6.33;;
1651;SDS011;823;49.028;8.454;2023-01-30T10:32:19;18.23;;;7.00;;
1651;SDS011;823;49.028;8.454;2023-01-30T10:37:26;16.47;;;6.03;;
1651;SDS011;823;49.028;8.454;2023-01-30T10:53:23;19.43;;;7.03;;
1651;SDS011;823;49.028;8.454;2023-01-30T10:59:20;17.83;;;6.23;;
1651;SDS011;823;49.028;8.454;2023-01-30T11:03:59;15.17;;;5.80;;
1651;SDS011;823;49.028;8.454;2023-01-30T11:09:02;13.73;;;5.10;;
1651;SDS011;823;49.028;8.454;2023-01-30T11:14:07;20.37;;;7.40;;
1651;SDS011;823;49.028;8.454;2023-01-30T11:19:09;17.60;;;6.93;;
1651;SDS011;823;49.028;8.454;2023-01-30T11:24:16;16.00;;;6.53;;
1651;SDS011;823;49.028;8.454;2023-01-30T11:34:27;15.23;;;6.73;;
1651;SDS011;823;49.028;8.454;2023-01-30T11:39:27;19.83;;;6.93;;
1651;SDS011;823;49.028;8.454;2023-01-30T11:44:29;17.90;;;6.17;;
1651;SDS011;823;49.028;8.454;2023-01-30T11:49:35;15.27;;;7.53;;
1651;SDS011;823;49.028;8.454;2023-01-30T11:54:40;16.87;;;7.20;;
1651;SDS011;823;49.028;8.454;2023-01-30T11:59:48;21.40;;;7.07;;
1651;SDS011;823;49.028;8.454;2023-01-30T12:05:03;23.00;;;8.23;;
1651;SDS011;823;49.028;8.454;2023-01-30T12:15:28;24.10;;;8.87;;
1651;SDS011;823;49.028;8.454;2023-01-30T12:20:44;17.83;;;7.93;;
1651;SDS011;823;49.028;8.454;2023-01-30T12:26:00;24.50;;;9.20;;
1651;SDS011;823;49.028;8.454;2023-01-30T12:31:18;21.47;;;8.40;;
1651;SDS011;823;49.028;8.454;2023-01-30T12:46:48;24.60;;;8.77;;
1651;SDS011;823;49.028;8.454;2023-01-30T13:08:24;30.57;;;11.30;;
1651;SDS011;823;49.028;8.454;2023-01-30T13:13:25;24.23;;;9.60;;
1651;SDS011;823;49.028;8.454;2023-01-30T13:18:37;27.27;;;8.13;;
1651;SDS011;823;49.028;8.454;2023-01-30T13:34:35;20.97;;;8.33;;
1651;SDS011;823;49.028;8.454;2023-01-30T13:44:45;26.57;;;9.07;;
1651;SDS011;823;49.028;8.454;2023-01-30T13:49:51;28.67;;;11.37;;
1651;SDS011;823;49.028;8.454;2023-01-30T14:00:27;18.90;;;8.23;;
1651;SDS011;823;49.028;8.454;2023-01-30T14:10:59;24.77;;;8.27;;
1651;SDS011;823;49.028;8.454;2023-01-30T14:16:01;18.20;;;7.07;;
1651;SDS011;823;49.028;8.454;2023-01-30T14:31:47;19.73;;;8.33;;
1651;SDS011;823;49.028;8.454;2023-01-30T14:36:48;22.80;;;8.80;;
1651;SDS011;823;49.028;8.454;2023-01-30T14:42:11;17.90;;;7.47;;
1651;SDS011;823;49.028;8.454;2023-01-30T14:47:21;22.30;;;9.37;;
1651;SDS011;823;49.028;8.454;2023-01-30T14:52:27;21.07;;;8.10;;
1651;SDS011;823;49.028;8.454;2023-01-30T14:57:33;22.47;;;7.87;;
1651;SDS011;823;49.028;8.454;2023-01-30T15:02:36;23.17;;;9.50;;
1651;SDS011;823;49.028;8.454;2023-01-30T15:07:44;19.27;;;6.70;;
1651;SDS011;823;49.028;8.454;2023-01-30T15:29:38;19.03;;;6.10;;
1651;SDS011;823;49.028;8.454;2023-01-30T15:34:57;17.40;;;6.90;;
1651;SDS011;823;49.028;8.454;2023-01-30T15:45:17;14.70;;;6.40;;
1651;SDS011;823;49.028;8.454;2023-01-30T15:50:23;31.50;;;7.90;;
1651;SDS011;823;49.028;8.454;2023-01-30T15:55:33;15.30;;;6.50;;
1651;SDS011;823;49.028;8.454;2023-01-30T16:00:36;20.47;;;7.37;;
1651;SDS011;823;49.028;8.454;2023-01-30T16:05:47;13.07;;;6.30;;
1651;SDS011;823;49.028;8.454;2023-01-30T16:10:49;16.40;;;7.23;;
1651;SDS011;823;49.028;8.454;2023-01-30T16:20:57;15.47;;;6.70;;
1651;SDS011;823;49.028;8.454;2023-01-30T16:26:01;20.33;;;7.20;;
1651;SDS011;823;49.028;8.454;2023-01-30T16:31:04;13.97;;;6.60;;
1651;SDS011;823;49.028;8.454;2023-01-30T16:41:29;19.37;;;6.50;;
1651;SDS011;823;49.028;8.454;2023-01-30T16:46:43;17.27;;;6.57;;
1651;SDS011;823;49.028;8.454;2023-01-30T16:51:46;13.27;;;6.20;;
1651;SDS011;823;49.028;8.454;2023-01-30T16:56:49;12.17;;;5.73;;
1651;SDS011;823;49.028;8.454;2023-01-30T17:01:53;16.30;;;5.83;;
1651;SDS011;823;49.028;8.454;2023-01-30T17:06:55;25.73;;;7.47;;
1651;SDS011;823;49.028;8.454;2023-01-30T17:17:41;11.90;;;5.67;;
1651;SDS011;823;49.028;8.454;2023-01-30T17:22:43;12.20;;;6.37;;
1651;SDS011;823;49.028;8.454;2023-01-30T17:27:47;15.23;;;6.70;;
1651;SDS011;823;49.028;8.454;2023-01-30T17:32:47;18.63;;;7.30;;
1651;SDS011;823;49.028;8.454;2023-01-30T17:37:49;13.30;;;6.10;;
1651;SDS011;823;49.028;8.454;2023-01-30T17:42:50;16.80;;;5.47;;
1651;SDS011;823;49.028;8.454;2023-01-30T17:47:50;18.30;;;6.22;;
1651;SDS011;823;49.028;8.454;2023-01-30T17:52:51;14.57;;;5.77;;
1651;SDS011;823;49.028;8.454;2023-01-30T17:57:51;15.65;;;6.10;;
1651;SDS011;823;49.028;8.454;2023-01-30T18:02:52;14.57;;;7.13;;
1651;SDS011;823;49.028;8.454;2023-01-30T18:07:53;17.27;;;7.57;;
1651;SDS011;823;49.028;8.454;2023-01-30T18:12:53;15.23;;;6.50;;
1651;SDS011;823;49.028;8.454;2023-01-30T18:17:53;15.93;;;6.63;;
1651;SDS011;823;49.028;8.454;2023-01-30T18:22:55;20.87;;;8.07;;
1651;SDS011;823;49.028;8.454;2023-01-30T18:27:55;14.88;;;7.35;;
1651;SDS011;823;49.028;8.454;2023-01-30T18:32:56;19.73;;;6.10;;
1651;SDS011;823;49.028;8.454;2023-01-30T18:37:56;18.00;;;8.20;;
1651;SDS011;823;49.028;8.454;2023-01-30T18:42:56;19.08;;;7.25;;
1651;SDS011;823;49.028;8.454;2023-01-30T18:47:56;17.48;;;7.65;;
1651;SDS011;823;49.028;8.454;2023-01-30T18:52:57;18.00;;;8.20;;
1651;SDS011;823;49.028;8.454;2023-01-30T18:57:58;17.13;;;6.82;;
1651;SDS011;823;49.028;8.454;2023-01-30T19:02:58;14.00;;;6.40;;
1651;SDS011;823;49.028;8.454;2023-01-30T19:07:58;20.17;;;7.53;;
1651;SDS011;823;49.028;8.454;2023-01-30T19:12:59;20.48;;;7.50;;
1651;SDS011;823;49.028;8.454;2023-01-30T19:18:18;15.60;;;7.60;;
1651;SDS011;823;49.028;8.454;2023-01-30T19:23:18;14.20;;;7.03;;
1651;SDS011;823;49.028;8.454;2023-01-30T19:28:18;17.02;;;7.10;;
1651;SDS011;823;49.028;8.454;2023-01-30T19:33:19;16.40;;;7.23;;
1651;SDS011;823;49.028;8.454;2023-01-30T19:38:19;11.80;;;5.80;;
1651;SDS011;823;49.028;8.454;2023-01-30T19:43:20;13.90;;;5.95;;
1651;SDS011;823;49.028;8.454;2023-01-30T19:48:20;15.43;;;6.93;;
1651;SDS011;823;49.028;8.454;2023-01-30T19:53:20;14.30;;;6.10;;
1651;SDS011;823;49.028;8.454;2023-01-30T19:58:21;12.43;;;5.85;;
1651;SDS011;823;49.028;8.454;2023-01-30T20:03:21;11.90;;;5.95;;
1651;SDS011;823;49.028;8.454;2023-01-30T20:08:21;13.38;;;6.13;;
1651;SDS011;823;49.028;8.454;2023-01-30T20:13:21;18.13;;;6.07;;
1651;SDS011;823;49.028;8.454;2023-01-30T20:18:22;13.80;;;6.32;;
1651;SDS011;823;49.028;8.454;2023-01-30T20:23:22;13.25;;;6.82;;
1651;SDS011;823;49.028;8.454;2023-01-30T20:28:22;21.70;;;6.57;;
1651;SDS011;823;49.028;8.454;2023-01-30T20:33:23;17.90;;;6.73;;
1651;SDS011;823;49.028;8.454;2023-01-30T20:38:23;17.63;;;6.93;;
1651;SDS011;823;49.028;8.454;2023-01-30T20:43:24;11.32;;;5.75;;
1651;SDS011;823;49.028;8.454;2023-01-30T20:48:24;11.70;;;6.63;;
1651;SDS011;823;49.028;8.454;2023-01-30T20:53:24;13.98;;;6.65;;
1651;SDS011;823;49.028;8.454;2023-01-30T20:58:25;17.80;;;7.77;;
1651;SDS011;823;49.028;8.454;2023-01-30T21:03:26;12.77;;;6.93;;
1651;SDS011;823;49.028;8.454;2023-01-30T21:08:27;11.70;;;5.32;;
1651;SDS011;823;49.028;8.454;2023-01-30T21:13:27;12.50;;;6.90;;
1651;SDS011;823;49.028;8.454;2023-01-30T21:18:28;15.90;;;6.23;;
1651;SDS011;823;49.028;8.454;2023-01-30T21:23:33;13.37;;;6.50;;
1651;SDS011;823;49.028;8.454;2023-01-30T21:28:34;13.30;;;6.30;;
1651;SDS011;823;49.028;8.454;2023-01-30T21:33:35;16.73;;;6.60;;
1651;SDS011;823;49.028;8.454;2023-01-30T21:38:35;11.07;;;5.32;;
1651;SDS011;823;49.028;8.454;2023-01-30T21:43:55;11.80;;;5.70;;
1651;SDS011;823;49.028;8.454;2023-01-30T21:48:55;13.75;;;6.35;;
1651;SDS011;823;49.028;8.454;2023-01-30T21:53:55;12.50;;;6.30;;
1651;SDS011;823;49.028;8.454;2023-01-30T21:58:59;12.98;;;6.63;;
1651;SDS011;823;49.028;8.454;2023-01-30T22:04:01;14.80;;;6.40;;
1651;SDS011;823;49.028;8.454;2023-01-30T22:09:02;11.17;;;6.17;;
1651;SDS011;823;49.028;8.454;2023-01-30T22:14:04;11.63;;;5.60;;
1651;SDS011;823;49.028;8.454;2023-01-30T22:19:04;13.57;;;6.07;;
1651;SDS011;823;49.028;8.454;2023-01-30T22:24:05;15.70;;;6.70;;
1651;SDS011;823;49.028;8.454;2023-01-30T22:29:07;12.40;;;5.77;;
1651;SDS011;823;49.028;8.454;2023-01-30T22:34:08;12.17;;;5.70;;
1651;SDS011;823;49.028;8.454;2023-01-30T22:39:08;9.38;;;5.30;;
1651;SDS011;823;49.028;8.454;2023-01-30T22:44:09;14.38;;;6.28;;
1651;SDS011;823;49.028;8.454;2023-01-30T22:49:09;10.77;;;5.40;;
1651;SDS011;823;49.028;8.454;2023-01-30T22:54:11;16.07;;;7.50;;
1651;SDS011;823;49.028;8.454;2023-01-30T22:59:15;20.60;;;5.20;;
1651;SDS011;823;49.028;8.454;2023-01-30T23:04:20;16.07;;;7.03;;
1651;SDS011;823;49.028;8.454;2023-01-30T23:09:23;12.97;;;5.17;;
1651;SDS011;823;49.028;8.454;2023-01-30T23:14:23;11.40;;;5.20;;
1651;SDS011;823;49.028;8.454;2023-01-30T23:19:24;10.30;;;5.10;;
1651;SDS011;823;49.028;8.454;2023-01-30T23:24:24;14.80;;;6.20;;
1651;SDS011;823;49.028;8.454;2023-01-30T23:29:25;13.10;;;6.45;;
1651;SDS011;823;49.028;8.454;2023-01-30T23:34:25;14.13;;;6.00;;
1651;SDS011;823;49.028;8.454;2023-01-30T23:39:25;12.27;;;6.27;;
1651;SDS011;823;49.028;8.454;2023-01-30T23:44:26;10.40;;;5.13;;
1651;SDS011;823;49.028;8.454;2023-01-30T23:49:26;12.32;;;6.05;;
1651;SDS011;823;49.028;8.454;2023-01-30T23:54:26;10.30;;;5.77;;
1651;SDS011;823;49.028;8.454;2023-01-30T23:59:26;10.63;;;5.93;;
